sensor_id;sensor_type;location;lat;lon;timestamp;temperature;humidity
18654;DHT22;9456;47.824;16.228;2023-02-15T16:39:49;2.60;93.80
18654;DHT22;9456;47.824;16.228;2023-02-15T16:42:22;2.50;93.80
18654;DHT22;9456;47.824;16.228;2023-02-15T16:44:53;2.40;93.90
18654;DHT22;9456;47.824;16.228;2023-02-15T16:53:42;2.30;94.50
18654;DHT22;9456;47.824;16.228;2023-02-15T16:56:11;2.20;94.50
18654;DHT22;9456;47.824;16.228;2023-02-15T17:01:54;2.10;94.80
18654;DHT22;9456;47.824;16.228;2023-02-15T17:04:37;2.00;94.80
18654;DHT22;9456;47.824;16.228;2023-02-15T17:16:52;1.60;95.00
18654;DHT22;9456;47.824;16.228;2023-02-15T17:19:22;1.50;94.90
18654;DHT22;9456;47.824;16.228;2023-02-15T17:27:56;1.10;95.90
18654;DHT22;9456;47.824;16.228;2023-02-15T17:30:28;1.00;96.00
18654;DHT22;9456;47.824;16.228;2023-02-15T17:35:44;0.90;96.20
18654;DHT22;9456;47.824;16.228;2023-02-15T17:38:18;0.80;96.30
18654;DHT22;9456;47.824;16.228;2023-02-15T17:40:48;0.70;96.40
18654;DHT22;9456;47.824;16.228;2023-02-15T17:43:17;0.70;96.50
18654;DHT22;9456;47.824;16.228;2023-02-15T17:45:48;0.70;96.50
18654;DHT22;9456;47.824;16.228;2023-02-15T17:48:18;0.60;96.40
18654;DHT22;9456;47.824;16.228;2023-02-15T17:50:46;0.50;96.40
18654;DHT22;9456;47.824;16.228;2023-02-15T17:53:18;0.40;96.40
18654;DHT22;9456;47.824;16.228;2023-02-15T17:55:46;0.30;96.30
18654;DHT22;9456;47.824;16.228;2023-02-15T17:58:16;0.20;96.30
18654;DHT22;9456;47.824;16.228;2023-02-15T18:00:51;0.20;96.60
18654;DHT22;9456;47.824;16.228;2023-02-15T18:03:42;0.10;96.90
18654;DHT22;9456;47.824;16.228;2023-02-15T18:06:29;0.10;97.40
18654;DHT22;9456;47.824;16.228;2023-02-15T18:09:17;0.10;97.50
18654;DHT22;9456;47.824;16.228;2023-02-15T18:12:05;0.00;97.40
18654;DHT22;9456;47.824;16.228;2023-02-15T18:14:35;0.00;97.10
18654;DHT22;9456;47.824;16.228;2023-02-15T18:17:04;-0.10;97.10
18654;DHT22;9456;47.824;16.228;2023-02-15T18:19:34;-0.20;97.10
18654;DHT22;9456;47.824;16.228;2023-02-15T18:22:07;-0.30;97.00
18654;DHT22;9456;47.824;16.228;2023-02-15T18:24:48;-0.40;97.00
18654;DHT22;9456;47.824;16.228;2023-02-15T18:27:18;-0.50;97.00
18654;DHT22;9456;47.824;16.228;2023-02-15T18:29:47;-0.50;97.00
18654;DHT22;9456;47.824;16.228;2023-02-15T18:32:18;-0.60;97.00
18654;DHT22;9456;47.824;16.228;2023-02-15T18:34:51;-0.60;97.10
18654;DHT22;9456;47.824;16.228;2023-02-15T18:37:22;-0.70;97.10
18654;DHT22;9456;47.824;16.228;2023-02-15T18:39:51;-0.70;97.20
18654;DHT22;9456;47.824;16.228;2023-02-15T18:45:37;-0.80;97.30
18654;DHT22;9456;47.824;16.228;2023-02-15T18:48:11;-0.90;97.30
18654;DHT22;9456;47.824;16.228;2023-02-15T18:50:41;-0.80;97.90
18654;DHT22;9456;47.824;16.228;2023-02-15T18:53:28;-0.70;98.40
18654;DHT22;9456;47.824;16.228;2023-02-15T18:56:20;-0.60;98.40
18654;DHT22;9456;47.824;16.228;2023-02-15T19:01:30;-0.60;98.50
18654;DHT22;9456;47.824;16.228;2023-02-15T19:03:59;-0.60;98.50
18654;DHT22;9456;47.824;16.228;2023-02-15T19:06:41;-0.70;98.50
18654;DHT22;9456;47.824;16.228;2023-02-15T19:09:25;-0.70;98.60
18654;DHT22;9456;47.824;16.228;2023-02-15T19:12:07;-0.80;98.60
18654;DHT22;9456;47.824;16.228;2023-02-15T19:17:24;-0.90;98.50
18654;DHT22;9456;47.824;16.228;2023-02-15T19:19:59;-1.00;98.40
18654;DHT22;9456;47.824;16.228;2023-02-15T19:22:47;-1.10;98.40
18654;DHT22;9456;47.824;16.228;2023-02-15T19:25:22;-1.20;98.40
18654;DHT22;9456;47.824;16.228;2023-02-15T19:27:53;-1.20;98.40
18654;DHT22;9456;47.824;16.228;2023-02-15T19:30:31;-1.30;98.50
18654;DHT22;9456;47.824;16.228;2023-02-15T19:33:00;-1.40;98.50
18654;DHT22;9456;47.824;16.228;2023-02-15T19:35:30;-1.40;98.50
18654;DHT22;9456;47.824;16.228;2023-02-15T19:47:10;-1.50;98.50
18654;DHT22;9456;47.824;16.228;2023-02-15T19:50:06;-1.60;98.50
18654;DHT22;9456;47.824;16.228;2023-02-15T19:52:46;-1.60;98.50
18654;DHT22;9456;47.824;16.228;2023-02-15T19:55:27;-1.70;98.40
18654;DHT22;9456;47.824;16.228;2023-02-15T19:58:01;-1.80;98.40
18654;DHT22;9456;47.824;16.228;2023-02-15T20:00:37;-1.90;98.50
18654;DHT22;9456;47.824;16.228;2023-02-15T20:03:09;-1.90;98.40
18654;DHT22;9456;47.824;16.228;2023-02-15T20:05:41;-1.90;98.50
18654;DHT22;9456;47.824;16.228;2023-02-15T20:08:15;-2.00;98.50
18654;DHT22;9456;47.824;16.228;2023-02-15T20:10:46;-2.00;98.50
18654;DHT22;9456;47.824;16.228;2023-02-15T20:13:21;-2.00;98.50
18654;DHT22;9456;47.824;16.228;2023-02-15T20:21:36;-2.20;98.50
18654;DHT22;9456;47.824;16.228;2023-02-15T20:26:48;-2.20;98.60
18654;DHT22;9456;47.824;16.228;2023-02-15T20:31:48;-2.30;98.80
18654;DHT22;9456;47.824;16.228;2023-02-15T20:34:18;-2.30;98.60
18654;DHT22;9456;47.824;16.228;2023-02-15T20:36:49;-2.30;98.60
18654;DHT22;9456;47.824;16.228;2023-02-15T20:39:21;-2.30;98.60
18654;DHT22;9456;47.824;16.228;2023-02-15T20:41:54;-2.40;98.60
18654;DHT22;9456;47.824;16.228;2023-02-15T20:44:25;-2.30;98.80
18654;DHT22;9456;47.824;16.228;2023-02-15T20:55:16;-2.30;98.90
18654;DHT22;9456;47.824;16.228;2023-02-15T20:57:47;-2.30;98.60
18654;DHT22;9456;47.824;16.228;2023-02-15T21:00:36;-2.30;98.40
18654;DHT22;9456;47.824;16.228;2023-02-15T21:03:26;-2.40;98.20
18654;DHT22;9456;47.824;16.228;2023-02-15T21:06:13;-2.50;98.00
18654;DHT22;9456;47.824;16.228;2023-02-15T21:11:25;-2.70;97.60
18654;DHT22;9456;47.824;16.228;2023-02-15T21:13:56;-2.80;97.60
18654;DHT22;9456;47.824;16.228;2023-02-15T21:16:25;-2.80;97.80
18654;DHT22;9456;47.824;16.228;2023-02-15T21:21:26;-2.90;98.50
18654;DHT22;9456;47.824;16.228;2023-02-15T21:23:57;-2.80;98.40
18654;DHT22;9456;47.824;16.228;2023-02-15T21:26:26;-2.80;98.30
18654;DHT22;9456;47.824;16.228;2023-02-15T21:28:56;-2.80;98.10
18654;DHT22;9456;47.824;16.228;2023-02-15T21:33:54;-2.90;98.20
18654;DHT22;9456;47.824;16.228;2023-02-15T21:36:27;-3.00;98.10
18654;DHT22;9456;47.824;16.228;2023-02-15T21:38:59;-3.00;98.20
18654;DHT22;9456;47.824;16.228;2023-02-15T21:41:32;-3.00;98.30
18654;DHT22;9456;47.824;16.228;2023-02-15T21:44:22;-3.00;98.30
18654;DHT22;9456;47.824;16.228;2023-02-15T21:47:16;-3.00;98.40
18654;DHT22;9456;47.824;16.228;2023-02-15T21:50:11;-3.00;98.50
18654;DHT22;9456;47.824;16.228;2023-02-15T21:52:58;-2.90;98.80
18654;DHT22;9456;47.824;16.228;2023-02-15T21:55:30;-2.90;98.90
18654;DHT22;9456;47.824;16.228;2023-02-15T21:57:59;-2.90;98.70
18654;DHT22;9456;47.824;16.228;2023-02-15T22:00:28;-2.90;98.80
18654;DHT22;9456;47.824;16.228;2023-02-15T22:02:57;-2.90;98.50
18654;DHT22;9456;47.824;16.228;2023-02-15T22:05:27;-3.00;98.20
18654;DHT22;9456;47.824;16.228;2023-02-15T22:07:57;-3.10;98.20
18654;DHT22;9456;47.824;16.228;2023-02-15T22:10:28;-3.10;98.40
18654;DHT22;9456;47.824;16.228;2023-02-15T22:16:20;-3.10;98.30
18654;DHT22;9456;47.824;16.228;2023-02-15T22:18:48;-3.20;98.20
18654;DHT22;9456;47.824;16.228;2023-02-15T22:23:49;-3.30;98.20
18654;DHT22;9456;47.824;16.228;2023-02-15T22:29:42;-3.40;98.10
18654;DHT22;9456;47.824;16.228;2023-02-15T22:39:10;-3.50;98.00
18654;DHT22;9456;47.824;16.228;2023-02-15T22:41:58;-3.50;98.10
18654;DHT22;9456;47.824;16.228;2023-02-15T22:47:20;-3.60;98.20
18654;DHT22;9456;47.824;16.228;2023-02-15T22:49:51;-3.50;98.50
18654;DHT22;9456;47.824;16.228;2023-02-15T22:52:28;-3.50;98.50
18654;DHT22;9456;47.824;16.228;2023-02-15T22:57:53;-3.40;98.40
18654;DHT22;9456;47.824;16.228;2023-02-15T23:03:04;-3.40;98.40
18654;DHT22;9456;47.824;16.228;2023-02-15T23:10:56;-3.10;98.60
18654;DHT22;9456;47.824;16.228;2023-02-15T23:19:14;-2.80;98.50
18654;DHT22;9456;47.824;16.228;2023-02-15T23:27:58;-2.60;98.30
18654;DHT22;9456;47.824;16.228;2023-02-15T23:30:29;-2.50;98.20
18654;DHT22;9456;47.824;16.228;2023-02-15T23:32:59;-2.40;98.30
18654;DHT22;9456;47.824;16.228;2023-02-15T23:35:30;-2.40;98.30
18654;DHT22;9456;47.824;16.228;2023-02-15T23:46:37;-2.10;98.20
18654;DHT22;9456;47.824;16.228;2023-02-15T23:49:20;-2.00;98.30
18654;DHT22;9456;47.824;16.228;2023-02-15T23:51:50;-2.00;98.20
18654;DHT22;9456;47.824;16.228;2023-02-15T23:54:24;-1.90;98.10
18654;DHT22;9456;47.824;16.228;2023-02-15T23:59:43;-1.80;98.00
